sensor_id;sensor_type;location;lat;lon;timestamp;temperature;humidity
46117;DHT22;32591;48.102;11.772;2023-01-08T00:00:09;2.80;99.90
46117;DHT22;32591;48.102;11.772;2023-01-08T00:02:37;2.80;99.90
46117;DHT22;32591;48.102;11.772;2023-01-08T00:05:06;2.80;99.90
46117;DHT22;32591;48.102;11.772;2023-01-08T00:07:35;2.80;99.90
46117;DHT22;32591;48.102;11.772;2023-01-08T00:10:02;2.80;99.90
46117;DHT22;32591;48.102;11.772;2023-01-08T00:12:30;2.80;99.90
46117;DHT22;32591;48.102;11.772;2023-01-08T00:14:56;2.80;99.90
46117;DHT22;32591;48.102;11.772;2023-01-08T00:17:23;2.80;99.90
46117;DHT22;32591;48.102;11.772;2023-01-08T00:19:50;2.70;99.90
46117;DHT22;32591;48.102;11.772;2023-01-08T00:22:18;2.70;99.90
46117;DHT22;32591;48.102;11.772;2023-01-08T00:24:45;2.70;99.90
46117;DHT22;32591;48.102;11.772;2023-01-08T00:27:12;2.70;99.90
46117;DHT22;32591;48.102;11.772;2023-01-08T00:29:39;2.70;99.90
46117;DHT22;32591;48.102;11.772;2023-01-08T00:32:06;2.70;99.90
46117;DHT22;32591;48.102;11.772;2023-01-08T00:34:33;2.70;99.90
46117;DHT22;32591;48.102;11.772;2023-01-08T00:37:00;2.70;99.90
46117;DHT22;32591;48.102;11.772;2023-01-08T00:39:28;2.70;99.90
46117;DHT22;32591;48.102;11.772;2023-01-08T00:41:55;2.80;99.90
46117;DHT22;32591;48.102;11.772;2023-01-08T00:44:22;2.80;99.90
46117;DHT22;32591;48.102;11.772;2023-01-08T00:46:49;2.80;99.90
46117;DHT22;32591;48.102;11.772;2023-01-08T00:49:16;2.80;99.90
46117;DHT22;32591;48.102;11.772;2023-01-08T00:51:43;2.80;99.90
46117;DHT22;32591;48.102;11.772;2023-01-08T00:54:09;2.80;99.90
46117;DHT22;32591;48.102;11.772;2023-01-08T00:56:38;2.70;99.90
46117;DHT22;32591;48.102;11.772;2023-01-08T00:59:05;2.70;99.90
46117;DHT22;32591;48.102;11.772;2023-01-08T01:01:32;2.70;99.90
46117;DHT22;32591;48.102;11.772;2023-01-08T01:03:59;2.70;99.90
46117;DHT22;32591;48.102;11.772;2023-01-08T01:06:26;2.60;99.90
46117;DHT22;32591;48.102;11.772;2023-01-08T01:08:52;2.60;99.90
46117;DHT22;32591;48.102;11.772;2023-01-08T01:11:22;2.60;99.90
46117;DHT22;32591;48.102;11.772;2023-01-08T01:13:52;2.50;99.90
46117;DHT22;32591;48.102;11.772;2023-01-08T01:16:20;2.50;99.90
46117;DHT22;32591;48.102;11.772;2023-01-08T01:18:47;2.50;99.90
46117;DHT22;32591;48.102;11.772;2023-01-08T01:21:21;2.40;99.90
46117;DHT22;32591;48.102;11.772;2023-01-08T01:23:49;2.40;99.90
46117;DHT22;32591;48.102;11.772;2023-01-08T01:26:20;2.30;99.90
46117;DHT22;32591;48.102;11.772;2023-01-08T01:28:51;2.30;99.90
46117;DHT22;32591;48.102;11.772;2023-01-08T01:31:20;2.30;99.90
46117;DHT22;32591;48.102;11.772;2023-01-08T01:33:47;2.20;99.90
46117;DHT22;32591;48.102;11.772;2023-01-08T01:36:16;2.20;99.90
46117;DHT22;32591;48.102;11.772;2023-01-08T01:38:45;2.20;99.90
46117;DHT22;32591;48.102;11.772;2023-01-08T01:41:18;2.20;99.90
46117;DHT22;32591;48.102;11.772;2023-01-08T01:43:51;2.20;99.90
46117;DHT22;32591;48.102;11.772;2023-01-08T01:46:27;2.20;99.90
46117;DHT22;32591;48.102;11.772;2023-01-08T01:49:05;2.20;99.90
46117;DHT22;32591;48.102;11.772;2023-01-08T01:51:36;2.30;99.90
46117;DHT22;32591;48.102;11.772;2023-01-08T01:54:08;2.30;99.90
46117;DHT22;32591;48.102;11.772;2023-01-08T01:56:37;2.30;99.90
46117;DHT22;32591;48.102;11.772;2023-01-08T01:59:05;2.30;99.90
46117;DHT22;32591;48.102;11.772;2023-01-08T02:01:33;2.30;99.90
46117;DHT22;32591;48.102;11.772;2023-01-08T02:04:00;2.20;99.90
46117;DHT22;32591;48.102;11.772;2023-01-08T02:06:31;2.10;99.90
46117;DHT22;32591;48.102;11.772;2023-01-08T02:09:06;1.90;99.90
46117;DHT22;32591;48.102;11.772;2023-01-08T02:11:43;1.80;99.90
46117;DHT22;32591;48.102;11.772;2023-01-08T02:14:19;1.80;99.90
46117;DHT22;32591;48.102;11.772;2023-01-08T02:16:54;1.80;99.90
46117;DHT22;32591;48.102;11.772;2023-01-08T02:19:33;1.80;99.90
46117;DHT22;32591;48.102;11.772;2023-01-08T02:22:12;1.90;99.90
46117;DHT22;32591;48.102;11.772;2023-01-08T02:24:49;1.90;99.90
46117;DHT22;32591;48.102;11.772;2023-01-08T02:27:23;1.80;99.90
46117;DHT22;32591;48.102;11.772;2023-01-08T02:29:52;1.80;99.90
46117;DHT22;32591;48.102;11.772;2023-01-08T02:32:24;1.80;99.90
46117;DHT22;32591;48.102;11.772;2023-01-08T02:34:53;1.80;99.90
46117;DHT22;32591;48.102;11.772;2023-01-08T02:37:20;1.70;99.90
46117;DHT22;32591;48.102;11.772;2023-01-08T02:39:58;1.70;99.90
46117;DHT22;32591;48.102;11.772;2023-01-08T02:42:38;1.70;99.90
46117;DHT22;32591;48.102;11.772;2023-01-08T02:45:13;1.70;99.90
46117;DHT22;32591;48.102;11.772;2023-01-08T02:47:49;1.60;99.90
46117;DHT22;32591;48.102;11.772;2023-01-08T02:50:23;1.60;99.90
46117;DHT22;32591;48.102;11.772;2023-01-08T02:52:57;1.60;99.90
46117;DHT22;32591;48.102;11.772;2023-01-08T02:55:26;1.60;99.90
46117;DHT22;32591;48.102;11.772;2023-01-08T02:57:56;1.60;99.90
46117;DHT22;32591;48.102;11.772;2023-01-08T03:00:24;1.50;99.90
46117;DHT22;32591;48.102;11.772;2023-01-08T03:02:58;1.50;99.90
46117;DHT22;32591;48.102;11.772;2023-01-08T03:05:27;1.50;99.90
46117;DHT22;32591;48.102;11.772;2023-01-08T03:07:55;1.50;99.90
46117;DHT22;32591;48.102;11.772;2023-01-08T03:10:25;1.50;99.90
46117;DHT22;32591;48.102;11.772;2023-01-08T03:12:57;1.50;99.90
46117;DHT22;32591;48.102;11.772;2023-01-08T03:15:29;1.40;99.90
46117;DHT22;32591;48.102;11.772;2023-01-08T03:18:00;1.40;99.90
46117;DHT22;32591;48.102;11.772;2023-01-08T03:20:32;1.40;99.90
46117;DHT22;32591;48.102;11.772;2023-01-08T03:23:04;1.50;99.90
46117;DHT22;32591;48.102;11.772;2023-01-08T03:25:35;1.50;99.90
46117;DHT22;32591;48.102;11.772;2023-01-08T03:28:08;1.40;99.90
46117;DHT22;32591;48.102;11.772;2023-01-08T03:30:39;1.40;99.90
46117;DHT22;32591;48.102;11.772;2023-01-08T03:33:09;1.40;99.90
46117;DHT22;32591;48.102;11.772;2023-01-08T03:35:39;1.40;99.90
46117;DHT22;32591;48.102;11.772;2023-01-08T03:38:11;1.40;99.90
46117;DHT22;32591;48.102;11.772;2023-01-08T03:40:43;1.40;99.90
46117;DHT22;32591;48.102;11.772;2023-01-08T03:43:13;1.30;99.90
46117;DHT22;32591;48.102;11.772;2023-01-08T03:45:48;1.30;99.90
46117;DHT22;32591;48.102;11.772;2023-01-08T03:48:18;1.30;99.90
46117;DHT22;32591;48.102;11.772;2023-01-08T03:50:45;1.30;99.90
46117;DHT22;32591;48.102;11.772;2023-01-08T03:53:13;1.20;99.90
46117;DHT22;32591;48.102;11.772;2023-01-08T03:55:40;1.20;99.90
46117;DHT22;32591;48.102;11.772;2023-01-08T03:58:07;1.20;99.90
46117;DHT22;32591;48.102;11.772;2023-01-08T04:00:35;1.20;99.90
46117;DHT22;32591;48.102;11.772;2023-01-08T04:03:02;1.20;99.90
46117;DHT22;32591;48.102;11.772;2023-01-08T04:05:30;1.20;99.90
46117;DHT22;32591;48.102;11.772;2023-01-08T04:07:56;1.20;99.90
46117;DHT22;32591;48.102;11.772;2023-01-08T04:10:24;1.20;99.90
46117;DHT22;32591;48.102;11.772;2023-01-08T04:12:51;1.30;99.90
46117;DHT22;32591;48.102;11.772;2023-01-08T04:15:18;1.20;99.90
46117;DHT22;32591;48.102;11.772;2023-01-08T04:17:47;1.20;99.90
46117;DHT22;32591;48.102;11.772;2023-01-08T04:20:14;1.30;99.90
46117;DHT22;32591;48.102;11.772;2023-01-08T04:22:40;1.30;99.90
46117;DHT22;32591;48.102;11.772;2023-01-08T04:25:07;1.30;99.90
46117;DHT22;32591;48.102;11.772;2023-01-08T04:27:35;1.20;99.90
46117;DHT22;32591;48.102;11.772;2023-01-08T04:30:02;1.20;99.90
46117;DHT22;32591;48.102;11.772;2023-01-08T04:32:30;1.20;99.90
46117;DHT22;32591;48.102;11.772;2023-01-08T04:34:58;1.20;99.90
46117;DHT22;32591;48.102;11.772;2023-01-08T04:37:25;1.20;99.90
46117;DHT22;32591;48.102;11.772;2023-01-08T04:39:52;1.20;99.90
46117;DHT22;32591;48.102;11.772;2023-01-08T04:42:19;1.20;99.90
46117;DHT22;32591;48.102;11.772;2023-01-08T04:44:45;1.20;99.90
46117;DHT22;32591;48.102;11.772;2023-01-08T04:47:12;1.20;99.90
46117;DHT22;32591;48.102;11.772;2023-01-08T04:49:39;1.30;99.90
46117;DHT22;32591;48.102;11.772;2023-01-08T04:52:07;1.30;99.90
46117;DHT22;32591;48.102;11.772;2023-01-08T04:54:34;1.20;99.90
46117;DHT22;32591;48.102;11.772;2023-01-08T04:57:01;1.30;99.90
46117;DHT22;32591;48.102;11.772;2023-01-08T04:59:28;1.30;99.90
46117;DHT22;32591;48.102;11.772;2023-01-08T05:01:54;1.30;99.90
46117;DHT22;32591;48.102;11.772;2023-01-08T05:04:22;1.20;99.90
46117;DHT22;32591;48.102;11.772;2023-01-08T05:06:49;1.30;99.90
46117;DHT22;32591;48.102;11.772;2023-01-08T05:09:17;1.30;99.90
46117;DHT22;32591;48.102;11.772;2023-01-08T05:11:44;1.30;99.90
46117;DHT22;32591;48.102;11.772;2023-01-08T05:14:11;1.40;99.90
46117;DHT22;32591;48.102;11.772;2023-01-08T05:16:38;1.40;99.90
46117;DHT22;32591;48.102;11.772;2023-01-08T05:19:04;1.40;99.90
46117;DHT22;32591;48.102;11.772;2023-01-08T05:21:32;1.40;99.90
46117;DHT22;32591;48.102;11.772;2023-01-08T05:23:59;1.40;99.90
46117;DHT22;32591;48.102;11.772;2023-01-08T05:26:27;1.40;99.90
46117;DHT22;32591;48.102;11.772;2023-01-08T05:28:54;1.40;99.90
46117;DHT22;32591;48.102;11.772;2023-01-08T05:31:21;1.50;99.90
46117;DHT22;32591;48.102;11.772;2023-01-08T05:33:48;1.50;99.90
46117;DHT22;32591;48.102;11.772;2023-01-08T05:36:16;1.50;99.90
46117;DHT22;32591;48.102;11.772;2023-01-08T05:38:43;1.50;99.90
46117;DHT22;32591;48.102;11.772;2023-01-08T05:41:10;1.50;99.90
46117;DHT22;32591;48.102;11.772;2023-01-08T05:43:38;1.50;99.90
46117;DHT22;32591;48.102;11.772;2023-01-08T05:46:05;1.50;99.90
46117;DHT22;32591;48.102;11.772;2023-01-08T05:48:32;1.50;99.90
46117;DHT22;32591;48.102;11.772;2023-01-08T05:51:00;1.50;99.90
46117;DHT22;32591;48.102;11.772;2023-01-08T05:53:27;1.50;99.90
46117;DHT22;32591;48.102;11.772;2023-01-08T05:56:00;1.50;99.90
46117;DHT22;32591;48.102;11.772;2023-01-08T05:58:28;1.50;99.90
46117;DHT22;32591;48.102;11.772;2023-01-08T06:01:02;1.50;99.90
46117;DHT22;32591;48.102;11.772;2023-01-08T06:03:30;1.50;99.90
46117;DHT22;32591;48.102;11.772;2023-01-08T06:05:57;1.50;99.90
46117;DHT22;32591;48.102;11.772;2023-01-08T06:08:24;1.50;99.90
46117;DHT22;32591;48.102;11.772;2023-01-08T06:10:51;1.50;99.90
46117;DHT22;32591;48.102;11.772;2023-01-08T06:13:18;1.50;99.90
46117;DHT22;32591;48.102;11.772;2023-01-08T06:15:45;1.50;99.90
46117;DHT22;32591;48.102;11.772;2023-01-08T06:18:13;1.50;99.90
46117;DHT22;32591;48.102;11.772;2023-01-08T06:20:40;1.50;99.90
46117;DHT22;32591;48.102;11.772;2023-01-08T06:23:07;1.50;99.90
46117;DHT22;32591;48.102;11.772;2023-01-08T06:25:34;1.50;99.90
46117;DHT22;32591;48.102;11.772;2023-01-08T06:28:01;1.50;99.90
46117;DHT22;32591;48.102;11.772;2023-01-08T06:30:27;1.50;99.90
46117;DHT22;32591;48.102;11.772;2023-01-08T06:32:54;1.50;99.90
46117;DHT22;32591;48.102;11.772;2023-01-08T06:35:23;1.50;99.90
46117;DHT22;32591;48.102;11.772;2023-01-08T06:37:51;1.50;99.90
46117;DHT22;32591;48.102;11.772;2023-01-08T06:40:18;1.50;99.90
46117;DHT22;32591;48.102;11.772;2023-01-08T06:42:44;1.60;99.90
46117;DHT22;32591;48.102;11.772;2023-01-08T06:45:12;1.50;99.90
46117;DHT22;32591;48.102;11.772;2023-01-08T06:47:39;1.50;99.90
46117;DHT22;32591;48.102;11.772;2023-01-08T06:50:06;1.60;99.90
46117;DHT22;32591;48.102;11.772;2023-01-08T06:52:35;1.60;99.90
46117;DHT22;32591;48.102;11.772;2023-01-08T06:55:02;1.60;99.90
46117;DHT22;32591;48.102;11.772;2023-01-08T06:57:30;1.60;99.90
46117;DHT22;32591;48.102;11.772;2023-01-08T06:59:57;1.60;99.90
46117;DHT22;32591;48.102;11.772;2023-01-08T07:02:24;1.60;99.90
46117;DHT22;32591;48.102;11.772;2023-01-08T07:04:51;1.60;99.90
46117;DHT22;32591;48.102;11.772;2023-01-08T07:07:18;1.60;99.90
46117;DHT22;32591;48.102;11.772;2023-01-08T07:09:46;1.60;99.90
46117;DHT22;32591;48.102;11.772;2023-01-08T07:12:13;1.60;99.90
46117;DHT22;32591;48.102;11.772;2023-01-08T07:14:40;1.60;99.90
46117;DHT22;32591;48.102;11.772;2023-01-08T07:17:07;1.60;99.90
46117;DHT22;32591;48.102;11.772;2023-01-08T07:19:34;1.60;99.90
46117;DHT22;32591;48.102;11.772;2023-01-08T07:22:01;1.60;99.90
46117;DHT22;32591;48.102;11.772;2023-01-08T07:24:28;1.60;99.90
46117;DHT22;32591;48.102;11.772;2023-01-08T07:26:56;1.50;99.90
46117;DHT22;32591;48.102;11.772;2023-01-08T07:29:22;1.50;99.90
46117;DHT22;32591;48.102;11.772;2023-01-08T07:31:50;1.60;99.90
46117;DHT22;32591;48.102;11.772;2023-01-08T07:34:16;1.60;99.90
46117;DHT22;32591;48.102;11.772;2023-01-08T07:36:43;1.60;99.90
46117;DHT22;32591;48.102;11.772;2023-01-08T07:39:10;1.70;99.90
46117;DHT22;32591;48.102;11.772;2023-01-08T07:41:37;1.70;99.90
46117;DHT22;32591;48.102;11.772;2023-01-08T07:44:05;1.80;99.90
46117;DHT22;32591;48.102;11.772;2023-01-08T07:46:32;1.80;99.90
46117;DHT22;32591;48.102;11.772;2023-01-08T07:48:59;1.80;99.90
46117;DHT22;32591;48.102;11.772;2023-01-08T07:51:26;1.90;99.90
46117;DHT22;32591;48.102;11.772;2023-01-08T07:53:54;1.90;99.90
46117;DHT22;32591;48.102;11.772;2023-01-08T07:56:22;1.90;99.90
46117;DHT22;32591;48.102;11.772;2023-01-08T07:58:49;2.00;99.90
46117;DHT22;32591;48.102;11.772;2023-01-08T08:01:17;2.00;99.90
46117;DHT22;32591;48.102;11.772;2023-01-08T08:03:44;2.00;99.90
46117;DHT22;32591;48.102;11.772;2023-01-08T08:06:11;2.00;99.90
46117;DHT22;32591;48.102;11.772;2023-01-08T08:08:38;2.00;99.90
46117;DHT22;32591;48.102;11.772;2023-01-08T08:11:05;2.10;99.90
46117;DHT22;32591;48.102;11.772;2023-01-08T08:13:31;2.10;99.90
46117;DHT22;32591;48.102;11.772;2023-01-08T08:16:02;2.20;99.90
46117;DHT22;32591;48.102;11.772;2023-01-08T08:18:31;2.20;99.90
46117;DHT22;32591;48.102;11.772;2023-01-08T08:20:58;2.30;99.90
46117;DHT22;32591;48.102;11.772;2023-01-08T08:23:25;2.20;99.90
46117;DHT22;32591;48.102;11.772;2023-01-08T08:26:02;2.30;99.90
46117;DHT22;32591;48.102;11.772;2023-01-08T08:28:30;2.40;99.90
46117;DHT22;32591;48.102;11.772;2023-01-08T08:30:56;2.50;99.90
46117;DHT22;32591;48.102;11.772;2023-01-08T08:33:24;2.50;99.90
46117;DHT22;32591;48.102;11.772;2023-01-08T08:35:52;2.60;99.90
46117;DHT22;32591;48.102;11.772;2023-01-08T08:38:19;2.60;99.90
46117;DHT22;32591;48.102;11.772;2023-01-08T08:40:46;2.60;99.90
46117;DHT22;32591;48.102;11.772;2023-01-08T08:43:13;2.70;99.90
46117;DHT22;32591;48.102;11.772;2023-01-08T08:45:40;2.80;99.90
46117;DHT22;32591;48.102;11.772;2023-01-08T08:48:07;2.90;99.90
46117;DHT22;32591;48.102;11.772;2023-01-08T08:50:36;3.00;99.90
46117;DHT22;32591;48.102;11.772;2023-01-08T08:53:05;3.10;99.90
46117;DHT22;32591;48.102;11.772;2023-01-08T08:55:33;3.10;99.90
46117;DHT22;32591;48.102;11.772;2023-01-08T08:58:05;3.20;99.90
46117;DHT22;32591;48.102;11.772;2023-01-08T09:00:35;3.30;99.90
46117;DHT22;32591;48.102;11.772;2023-01-08T09:03:03;3.30;99.90
46117;DHT22;32591;48.102;11.772;2023-01-08T09:05:30;3.40;99.90
46117;DHT22;32591;48.102;11.772;2023-01-08T09:07:57;3.50;99.90
46117;DHT22;32591;48.102;11.772;2023-01-08T09:10:25;3.50;99.90
46117;DHT22;32591;48.102;11.772;2023-01-08T09:12:52;3.50;99.90
46117;DHT22;32591;48.102;11.772;2023-01-08T09:15:21;3.50;99.90
46117;DHT22;32591;48.102;11.772;2023-01-08T09:17:52;3.60;99.90
46117;DHT22;32591;48.102;11.772;2023-01-08T09:20:20;3.70;99.90
46117;DHT22;32591;48.102;11.772;2023-01-08T09:22:47;3.80;99.90
46117;DHT22;32591;48.102;11.772;2023-01-08T09:25:14;3.80;99.90
46117;DHT22;32591;48.102;11.772;2023-01-08T09:27:43;3.90;99.90
46117;DHT22;32591;48.102;11.772;2023-01-08T09:30:11;4.10;99.90
46117;DHT22;32591;48.102;11.772;2023-01-08T09:32:38;4.10;99.90
46117;DHT22;32591;48.102;11.772;2023-01-08T09:35:05;4.20;99.90
46117;DHT22;32591;48.102;11.772;2023-01-08T09:37:33;4.30;99.90
46117;DHT22;32591;48.102;11.772;2023-01-08T09:40:00;4.40;99.90
46117;DHT22;32591;48.102;11.772;2023-01-08T09:42:28;4.50;99.90
46117;DHT22;32591;48.102;11.772;2023-01-08T09:44:58;4.60;99.90
46117;DHT22;32591;48.102;11.772;2023-01-08T09:47:29;4.50;99.90
46117;DHT22;32591;48.102;11.772;2023-01-08T09:50:00;4.50;99.90
46117;DHT22;32591;48.102;11.772;2023-01-08T09:52:30;4.50;99.90
46117;DHT22;32591;48.102;11.772;2023-01-08T09:54:57;4.50;99.90
46117;DHT22;32591;48.102;11.772;2023-01-08T09:57:25;4.50;99.90
46117;DHT22;32591;48.102;11.772;2023-01-08T09:59:53;4.60;99.90
46117;DHT22;32591;48.102;11.772;2023-01-08T10:02:24;4.70;99.90
46117;DHT22;32591;48.102;11.772;2023-01-08T10:04:55;4.70;99.90
46117;DHT22;32591;48.102;11.772;2023-01-08T10:07:25;4.80;99.90
46117;DHT22;32591;48.102;11.772;2023-01-08T10:09:54;4.90;99.90
46117;DHT22;32591;48.102;11.772;2023-01-08T10:12:25;5.00;99.90
46117;DHT22;32591;48.102;11.772;2023-01-08T10:14:55;5.10;99.90
46117;DHT22;32591;48.102;11.772;2023-01-08T10:17:28;5.20;99.90
46117;DHT22;32591;48.102;11.772;2023-01-08T10:19:57;5.20;99.90
46117;DHT22;32591;48.102;11.772;2023-01-08T10:22:30;5.30;99.90
46117;DHT22;32591;48.102;11.772;2023-01-08T10:25:05;5.30;99.90
46117;DHT22;32591;48.102;11.772;2023-01-08T10:27:44;5.40;99.90
46117;DHT22;32591;48.102;11.772;2023-01-08T10:30:15;5.50;99.90
46117;DHT22;32591;48.102;11.772;2023-01-08T10:32:50;5.70;99.90
46117;DHT22;32591;48.102;11.772;2023-01-08T10:35:21;5.90;99.90
46117;DHT22;32591;48.102;11.772;2023-01-08T10:37:50;6.00;99.90
46117;DHT22;32591;48.102;11.772;2023-01-08T10:40:22;6.20;99.90
46117;DHT22;32591;48.102;11.772;2023-01-08T10:42:55;6.30;99.90
46117;DHT22;32591;48.102;11.772;2023-01-08T10:45:24;6.40;99.90
46117;DHT22;32591;48.102;11.772;2023-01-08T10:47:55;6.50;99.90
46117;DHT22;32591;48.102;11.772;2023-01-08T10:50:26;6.50;99.90
46117;DHT22;32591;48.102;11.772;2023-01-08T10:52:55;6.60;99.90
46117;DHT22;32591;48.102;11.772;2023-01-08T10:55:26;6.60;99.90
46117;DHT22;32591;48.102;11.772;2023-01-08T10:57:56;6.70;99.90
46117;DHT22;32591;48.102;11.772;2023-01-08T11:00:26;6.80;99.90
46117;DHT22;32591;48.102;11.772;2023-01-08T11:02:57;7.00;99.90
46117;DHT22;32591;48.102;11.772;2023-01-08T11:05:30;7.10;99.90
46117;DHT22;32591;48.102;11.772;2023-01-08T11:07:59;7.30;99.90
46117;DHT22;32591;48.102;11.772;2023-01-08T11:10:28;7.40;99.90
46117;DHT22;32591;48.102;11.772;2023-01-08T11:12:57;7.60;99.90
46117;DHT22;32591;48.102;11.772;2023-01-08T11:15:31;7.60;99.90
46117;DHT22;32591;48.102;11.772;2023-01-08T11:18:05;7.70;99.90
46117;DHT22;32591;48.102;11.772;2023-01-08T11:20:37;7.70;99.90
46117;DHT22;32591;48.102;11.772;2023-01-08T11:23:17;7.60;99.90
46117;DHT22;32591;48.102;11.772;2023-01-08T11:25:54;7.60;99.90
46117;DHT22;32591;48.102;11.772;2023-01-08T11:28:35;7.50;99.90
46117;DHT22;32591;48.102;11.772;2023-01-08T11:31:14;7.50;99.90
46117;DHT22;32591;48.102;11.772;2023-01-08T11:33:46;7.40;99.90
46117;DHT22;32591;48.102;11.772;2023-01-08T11:36:21;7.50;99.90
46117;DHT22;32591;48.102;11.772;2023-01-08T11:38:51;7.50;99.90
46117;DHT22;32591;48.102;11.772;2023-01-08T11:41:28;7.60;99.90
46117;DHT22;32591;48.102;11.772;2023-01-08T11:44:16;7.60;99.90
46117;DHT22;32591;48.102;11.772;2023-01-08T11:46:53;7.60;99.90
46117;DHT22;32591;48.102;11.772;2023-01-08T11:52:34;7.80;99.90
46117;DHT22;32591;48.102;11.772;2023-01-08T11:55:17;7.80;99.90
46117;DHT22;32591;48.102;11.772;2023-01-08T11:58:05;7.80;99.90
46117;DHT22;32591;48.102;11.772;2023-01-08T12:00:56;7.90;99.90
46117;DHT22;32591;48.102;11.772;2023-01-08T12:03:30;8.00;99.90
46117;DHT22;32591;48.102;11.772;2023-01-08T12:06:10;8.10;99.90
46117;DHT22;32591;48.102;11.772;2023-01-08T12:08:53;8.10;99.90
46117;DHT22;32591;48.102;11.772;2023-01-08T12:11:27;8.20;99.90
46117;DHT22;32591;48.102;11.772;2023-01-08T12:14:29;8.30;99.90
46117;DHT22;32591;48.102;11.772;2023-01-08T12:17:11;8.30;99.90
46117;DHT22;32591;48.102;11.772;2023-01-08T12:20:14;8.30;99.90
46117;DHT22;32591;48.102;11.772;2023-01-08T12:22:57;8.40;99.90
46117;DHT22;32591;48.102;11.772;2023-01-08T12:25:41;8.40;99.90
46117;DHT22;32591;48.102;11.772;2023-01-08T12:31:50;8.50;99.90
46117;DHT22;32591;48.102;11.772;2023-01-08T12:34:34;8.40;99.90
46117;DHT22;32591;48.102;11.772;2023-01-08T12:37:10;8.40;99.90
46117;DHT22;32591;48.102;11.772;2023-01-08T12:39:48;8.30;99.90
46117;DHT22;32591;48.102;11.772;2023-01-08T12:42:19;8.30;99.90
46117;DHT22;32591;48.102;11.772;2023-01-08T12:44:50;8.30;99.90
46117;DHT22;32591;48.102;11.772;2023-01-08T12:47:24;8.20;99.90
46117;DHT22;32591;48.102;11.772;2023-01-08T12:50:01;8.30;99.90
46117;DHT22;32591;48.102;11.772;2023-01-08T12:52:40;8.20;99.90
46117;DHT22;32591;48.102;11.772;2023-01-08T12:55:20;8.30;99.90
46117;DHT22;32591;48.102;11.772;2023-01-08T12:57:58;8.30;99.90
46117;DHT22;32591;48.102;11.772;2023-01-08T13:00:33;8.30;99.90
46117;DHT22;32591;48.102;11.772;2023-01-08T13:03:05;8.30;99.90
46117;DHT22;32591;48.102;11.772;2023-01-08T13:05:39;8.30;99.90
46117;DHT22;32591;48.102;11.772;2023-01-08T13:08:23;8.30;99.90
46117;DHT22;32591;48.102;11.772;2023-01-08T13:10:56;8.20;99.90
46117;DHT22;32591;48.102;11.772;2023-01-08T13:13:26;8.20;99.90
46117;DHT22;32591;48.102;11.772;2023-01-08T13:16:14;8.10;99.90
46117;DHT22;32591;48.102;11.772;2023-01-08T13:18:52;8.20;99.90
46117;DHT22;32591;48.102;11.772;2023-01-08T13:21:34;8.20;99.90
46117;DHT22;32591;48.102;11.772;2023-01-08T13:24:05;8.20;99.90
46117;DHT22;32591;48.102;11.772;2023-01-08T13:26:47;8.20;99.90
46117;DHT22;32591;48.102;11.772;2023-01-08T13:29:35;8.20;99.90
46117;DHT22;32591;48.102;11.772;2023-01-08T13:35:02;8.20;99.90
46117;DHT22;32591;48.102;11.772;2023-01-08T13:37:46;8.20;99.90
46117;DHT22;32591;48.102;11.772;2023-01-08T13:43:26;8.10;99.90
46117;DHT22;32591;48.102;11.772;2023-01-08T13:46:06;8.00;99.90
46117;DHT22;32591;48.102;11.772;2023-01-08T13:48:36;8.00;99.90
46117;DHT22;32591;48.102;11.772;2023-01-08T13:51:05;8.00;99.90
46117;DHT22;32591;48.102;11.772;2023-01-08T13:53:33;7.90;99.90
46117;DHT22;32591;48.102;11.772;2023-01-08T13:56:02;7.90;99.90
46117;DHT22;32591;48.102;11.772;2023-01-08T13:58:36;7.90;99.90
46117;DHT22;32591;48.102;11.772;2023-01-08T14:01:06;7.90;99.90
46117;DHT22;32591;48.102;11.772;2023-01-08T14:03:35;7.90;99.90
46117;DHT22;32591;48.102;11.772;2023-01-08T14:06:10;8.00;99.90
46117;DHT22;32591;48.102;11.772;2023-01-08T14:08:48;7.90;99.90
46117;DHT22;32591;48.102;11.772;2023-01-08T14:11:16;7.90;99.90
46117;DHT22;32591;48.102;11.772;2023-01-08T14:13:46;7.80;99.90
46117;DHT22;32591;48.102;11.772;2023-01-08T14:16:14;7.80;99.90
46117;DHT22;32591;48.102;11.772;2023-01-08T14:18:43;7.80;99.90
46117;DHT22;32591;48.102;11.772;2023-01-08T14:21:11;7.90;99.90
46117;DHT22;32591;48.102;11.772;2023-01-08T14:23:41;7.90;99.90
46117;DHT22;32591;48.102;11.772;2023-01-08T14:26:18;7.90;99.90
46117;DHT22;32591;48.102;11.772;2023-01-08T14:28:51;7.90;99.90
46117;DHT22;32591;48.102;11.772;2023-01-08T14:31:20;7.90;99.90
46117;DHT22;32591;48.102;11.772;2023-01-08T14:33:49;7.80;99.90
46117;DHT22;32591;48.102;11.772;2023-01-08T14:36:17;7.80;99.90
46117;DHT22;32591;48.102;11.772;2023-01-08T14:38:44;7.80;99.90
46117;DHT22;32591;48.102;11.772;2023-01-08T14:41:24;7.80;99.90
46117;DHT22;32591;48.102;11.772;2023-01-08T14:44:18;7.90;99.90
46117;DHT22;32591;48.102;11.772;2023-01-08T14:46:46;8.00;99.90
46117;DHT22;32591;48.102;11.772;2023-01-08T14:49:19;8.00;99.90
46117;DHT22;32591;48.102;11.772;2023-01-08T14:51:48;8.00;99.90
46117;DHT22;32591;48.102;11.772;2023-01-08T14:54:18;8.00;99.90
46117;DHT22;32591;48.102;11.772;2023-01-08T14:56:49;8.00;99.90
46117;DHT22;32591;48.102;11.772;2023-01-08T14:59:20;8.00;99.90
46117;DHT22;32591;48.102;11.772;2023-01-08T15:01:51;8.00;99.90
46117;DHT22;32591;48.102;11.772;2023-01-08T15:04:21;8.10;99.90
46117;DHT22;32591;48.102;11.772;2023-01-08T15:06:49;8.10;99.90
46117;DHT22;32591;48.102;11.772;2023-01-08T15:09:22;8.10;99.90
46117;DHT22;32591;48.102;11.772;2023-01-08T15:11:52;8.20;99.90
46117;DHT22;32591;48.102;11.772;2023-01-08T15:14:24;8.20;99.90
46117;DHT22;32591;48.102;11.772;2023-01-08T15:16:53;8.30;99.90
46117;DHT22;32591;48.102;11.772;2023-01-08T15:19:23;8.20;99.90
46117;DHT22;32591;48.102;11.772;2023-01-08T15:21:52;8.20;99.90
46117;DHT22;32591;48.102;11.772;2023-01-08T15:24:24;8.10;99.90
46117;DHT22;32591;48.102;11.772;2023-01-08T15:26:53;8.00;99.90
46117;DHT22;32591;48.102;11.772;2023-01-08T15:29:26;8.00;99.90
46117;DHT22;32591;48.102;11.772;2023-01-08T15:32:07;7.90;99.90
46117;DHT22;32591;48.102;11.772;2023-01-08T15:34:36;7.80;99.90
46117;DHT22;32591;48.102;11.772;2023-01-08T15:37:03;7.60;99.90
46117;DHT22;32591;48.102;11.772;2023-01-08T15:39:30;7.40;99.90
46117;DHT22;32591;48.102;11.772;2023-01-08T15:41:59;7.30;99.90
46117;DHT22;32591;48.102;11.772;2023-01-08T15:44:57;7.30;99.90
46117;DHT22;32591;48.102;11.772;2023-01-08T15:47:24;7.40;99.90
46117;DHT22;32591;48.102;11.772;2023-01-08T15:49:51;7.40;99.90
46117;DHT22;32591;48.102;11.772;2023-01-08T15:52:20;7.30;99.90
46117;DHT22;32591;48.102;11.772;2023-01-08T15:54:48;7.30;99.90
46117;DHT22;32591;48.102;11.772;2023-01-08T15:57:15;7.20;99.90
46117;DHT22;32591;48.102;11.772;2023-01-08T15:59:45;7.10;99.90
46117;DHT22;32591;48.102;11.772;2023-01-08T16:02:13;7.20;99.90